TAP1567 LPPT-GVBA
Flight info
| Callsign | TAP1567 |
|---|---|
| Flight time | N/A |
| Altitude | 33000 |
| Route | ULVOT DCT BEXAL DCT SAMAR DCT YUSME DCT LIMAL N873 IPERA DCT PINPO PINPO1P |
| Aircraft | A321/M-SDE3FGHIJ1RWXYZ/LB1 |
Departure
| Time | N/A |
|---|---|
| Airport | Lisbon Humberto Delgado Airport (LPPT) |
Arrival
| Time | 2026-04-25 19:35 |
|---|---|
| Airport | Aristides Pereira International Airport (GVBA) |
| Time | Latitude | Longitude | Altitude | Speed | Heading |
|---|---|---|---|---|---|
| 2026-04-25 19:01 | 17.68776 | -21.88877 | 17971 ft | 355 kts | 234° |
| 2026-04-25 19:01 | 17.67245 | -21.90906 | 17964 ft | 355 kts | 231° |
| 2026-04-25 19:02 | 17.63505 | -21.94299 | 17684 ft | 356 kts | 216° |
| 2026-04-25 19:02 | 17.61336 | -21.95553 | 17136 ft | 357 kts | 207° |
| 2026-04-25 19:02 | 17.59058 | -21.96571 | 16582 ft | 355 kts | 206° |
| 2026-04-25 19:03 | 17.56060 | -21.97910 | 15882 ft | 352 kts | 206° |
| 2026-04-25 19:03 | 17.52336 | -21.99590 | 15102 ft | 349 kts | 206° |
| 2026-04-25 19:03 | 17.50107 | -22.00599 | 14952 ft | 349 kts | 206° |
| 2026-04-25 19:04 | 17.45636 | -22.02630 | 14969 ft | 351 kts | 206° |
| 2026-04-25 19:04 | 17.43414 | -22.03634 | 14814 ft | 342 kts | 206° |
| 2026-04-25 19:05 | 17.39212 | -22.05520 | 14543 ft | 316 kts | 206° |
| 2026-04-25 19:05 | 17.35236 | -22.07307 | 13867 ft | 308 kts | 207° |
| 2026-04-25 19:05 | 17.33272 | -22.08193 | 13440 ft | 306 kts | 206° |
| 2026-04-25 19:06 | 17.31322 | -22.09074 | 13028 ft | 304 kts | 206° |
| 2026-04-25 19:06 | 17.27468 | -22.10808 | 12232 ft | 298 kts | 206° |
| 2026-04-25 19:06 | 17.25571 | -22.11660 | 11846 ft | 295 kts | 207° |
| 2026-04-25 19:07 | 17.21833 | -22.13341 | 11082 ft | 290 kts | 207° |
| 2026-04-25 19:07 | 17.19991 | -22.14171 | 10704 ft | 287 kts | 207° |
| 2026-04-25 19:08 | 17.16390 | -22.15791 | 9992 ft | 280 kts | 207° |
| 2026-04-25 19:08 | 17.14608 | -22.16593 | 9595 ft | 278 kts | 207° |
| 2026-04-25 19:09 | 17.09291 | -22.18982 | 8251 ft | 277 kts | 207° |
| 2026-04-25 19:09 | 17.08694 | -22.19250 | 8105 ft | 276 kts | 207° |
| 2026-04-25 19:09 | 17.04002 | -22.21359 | 6958 ft | 275 kts | 207° |
| 2026-04-25 19:10 | 17.02240 | -22.22149 | 6519 ft | 276 kts | 207° |
| 2026-04-25 19:10 | 17.00477 | -22.22939 | 6080 ft | 275 kts | 207° |
| 2026-04-25 19:10 | 16.98715 | -22.23730 | 5621 ft | 276 kts | 207° |
| 2026-04-25 19:10 | 16.96950 | -22.24521 | 5177 ft | 276 kts | 207° |
| 2026-04-25 19:11 | 16.95190 | -22.25311 | 5024 ft | 277 kts | 207° |
| 2026-04-25 19:11 | 16.93416 | -22.26107 | 5028 ft | 279 kts | 206° |
| 2026-04-25 19:11 | 16.91630 | -22.26907 | 5030 ft | 279 kts | 207° |
| 2026-04-25 19:11 | 16.89844 | -22.27706 | 5030 ft | 280 kts | 207° |
| 2026-04-25 19:12 | 16.88058 | -22.28506 | 5024 ft | 279 kts | 207° |
| 2026-04-25 19:12 | 16.86270 | -22.29309 | 5024 ft | 279 kts | 207° |
| 2026-04-25 19:12 | 16.84509 | -22.30099 | 5028 ft | 279 kts | 207° |
| 2026-04-25 19:12 | 16.82722 | -22.30901 | 5024 ft | 279 kts | 207° |
| 2026-04-25 19:13 | 16.80939 | -22.31701 | 5025 ft | 279 kts | 207° |
| 2026-04-25 19:13 | 16.79153 | -22.32501 | 5024 ft | 279 kts | 207° |
| 2026-04-25 19:13 | 16.77366 | -22.33299 | 5021 ft | 280 kts | 207° |
| 2026-04-25 19:13 | 16.75575 | -22.34100 | 5023 ft | 280 kts | 206° |
| 2026-04-25 19:14 | 16.73787 | -22.34898 | 5017 ft | 279 kts | 207° |
| 2026-04-25 19:14 | 16.73186 | -22.35166 | 5018 ft | 279 kts | 207° |
| 2026-04-25 19:14 | 16.70217 | -22.36489 | 5019 ft | 279 kts | 207° |
| 2026-04-25 19:14 | 16.68428 | -22.37286 | 5019 ft | 279 kts | 207° |
| 2026-04-25 19:15 | 16.66644 | -22.38084 | 5020 ft | 279 kts | 206° |
| 2026-04-25 19:15 | 16.64859 | -22.38880 | 5019 ft | 279 kts | 207° |
| 2026-04-25 19:15 | 16.63074 | -22.39674 | 5019 ft | 279 kts | 207° |
| 2026-04-25 19:15 | 16.61289 | -22.40470 | 5019 ft | 279 kts | 207° |
| 2026-04-25 19:16 | 16.59507 | -22.41265 | 5015 ft | 279 kts | 207° |
| 2026-04-25 19:16 | 16.57721 | -22.42064 | 5017 ft | 279 kts | 206° |
| 2026-04-25 19:16 | 16.55938 | -22.42862 | 5015 ft | 279 kts | 207° |
| 2026-04-25 19:16 | 16.54153 | -22.43660 | 5017 ft | 279 kts | 207° |
| 2026-04-25 19:17 | 16.52364 | -22.44460 | 5017 ft | 280 kts | 207° |
| 2026-04-25 19:17 | 16.50573 | -22.45260 | 5020 ft | 281 kts | 207° |
| 2026-04-25 19:17 | 16.48782 | -22.46058 | 5016 ft | 279 kts | 206° |
| 2026-04-25 19:17 | 16.46992 | -22.46856 | 5010 ft | 280 kts | 206° |
| 2026-04-25 19:18 | 16.45201 | -22.47655 | 5014 ft | 280 kts | 207° |
| 2026-04-25 19:18 | 16.43418 | -22.48450 | 4838 ft | 278 kts | 207° |
| 2026-04-25 19:18 | 16.41653 | -22.49236 | 4536 ft | 271 kts | 206° |
| 2026-04-25 19:18 | 16.39961 | -22.49987 | 4418 ft | 258 kts | 206° |
| 2026-04-25 19:19 | 16.38344 | -22.50705 | 4250 ft | 248 kts | 206° |
| 2026-04-25 19:19 | 16.37306 | -22.51167 | 4132 ft | 241 kts | 207° |
| 2026-04-25 19:19 | 16.35338 | -22.52043 | 3888 ft | 227 kts | 207° |
| 2026-04-25 19:19 | 16.34846 | -22.52262 | 3765 ft | 227 kts | 207° |
| 2026-04-25 19:20 | 16.32412 | -22.53350 | 3161 ft | 230 kts | 205° |
| 2026-04-25 19:20 | 16.30951 | -22.54001 | 2864 ft | 228 kts | 204° |
| 2026-04-25 19:20 | 16.29497 | -22.54648 | 2581 ft | 227 kts | 203° |
| 2026-04-25 19:20 | 16.28068 | -22.55345 | 2492 ft | 226 kts | 211° |
| 2026-04-25 19:21 | 16.27185 | -22.55969 | 2501 ft | 228 kts | 220° |
| 2026-04-25 19:21 | 16.24669 | -22.57970 | 2510 ft | 230 kts | 220° |
| 2026-04-25 19:21 | 16.23376 | -22.58990 | 2509 ft | 230 kts | 219° |
| 2026-04-25 19:22 | 16.22118 | -22.59981 | 2512 ft | 230 kts | 219° |
| 2026-04-25 19:22 | 16.20844 | -22.60985 | 2517 ft | 229 kts | 219° |
| 2026-04-25 19:22 | 16.18308 | -22.62986 | 2509 ft | 229 kts | 219° |
| 2026-04-25 19:23 | 16.17044 | -22.63986 | 2517 ft | 229 kts | 219° |
| 2026-04-25 19:23 | 16.14512 | -22.65988 | 2517 ft | 228 kts | 219° |
| 2026-04-25 19:23 | 16.13246 | -22.66989 | 2515 ft | 229 kts | 218° |
| 2026-04-25 19:24 | 16.11975 | -22.67990 | 2517 ft | 229 kts | 219° |
| 2026-04-25 19:24 | 16.10705 | -22.68989 | 2501 ft | 229 kts | 220° |
| 2026-04-25 19:24 | 16.08150 | -22.71002 | 2509 ft | 232 kts | 220° |
| 2026-04-25 19:25 | 16.05598 | -22.73009 | 2504 ft | 230 kts | 219° |
| 2026-04-25 19:25 | 16.04327 | -22.74010 | 2515 ft | 229 kts | 219° |
| 2026-04-25 19:25 | 16.03060 | -22.75010 | 2512 ft | 228 kts | 220° |
| 2026-04-25 19:26 | 16.01797 | -22.76008 | 2505 ft | 228 kts | 219° |
| 2026-04-25 19:26 | 16.00528 | -22.77011 | 2503 ft | 229 kts | 219° |
| 2026-04-25 19:26 | 15.99258 | -22.78014 | 2521 ft | 229 kts | 219° |
| 2026-04-25 19:26 | 15.97991 | -22.79011 | 2518 ft | 228 kts | 219° |
| 2026-04-25 19:27 | 15.96724 | -22.80007 | 2509 ft | 227 kts | 220° |
| 2026-04-25 19:27 | 15.95890 | -22.80662 | 2518 ft | 228 kts | 219° |
| 2026-04-25 19:27 | 15.94193 | -22.81997 | 2519 ft | 229 kts | 219° |
| 2026-04-25 19:27 | 15.92928 | -22.82990 | 2504 ft | 226 kts | 219° |
| 2026-04-25 19:28 | 15.91811 | -22.84119 | 2506 ft | 224 kts | 237° |
| 2026-04-25 19:28 | 15.91063 | -22.85521 | 2521 ft | 221 kts | 254° |
| 2026-04-25 19:28 | 15.90735 | -22.87034 | 2519 ft | 216 kts | 270° |
| 2026-04-25 19:28 | 15.90809 | -22.88568 | 2518 ft | 212 kts | 286° |
| 2026-04-25 19:29 | 15.91204 | -22.90025 | 2522 ft | 209 kts | 292° |
| 2026-04-25 19:29 | 15.91623 | -22.91464 | 2510 ft | 208 kts | 292° |
| 2026-04-25 19:29 | 15.92085 | -22.92891 | 2502 ft | 207 kts | 303° |
| 2026-04-25 19:29 | 15.92983 | -22.93995 | 2521 ft | 198 kts | 329° |
| 2026-04-25 19:30 | 15.94217 | -22.94550 | 2518 ft | 192 kts | 353° |
| 2026-04-25 19:30 | 15.95496 | -22.94511 | 2519 ft | 177 kts | 14° |
| 2026-04-25 19:30 | 15.96659 | -22.94147 | 2520 ft | 172 kts | 17° |
| 2026-04-25 19:30 | 15.97802 | -22.93795 | 2512 ft | 171 kts | 16° |
| 2026-04-25 19:31 | 15.98944 | -22.93444 | 2518 ft | 172 kts | 16° |
| 2026-04-25 19:31 | 16.00067 | -22.93099 | 2510 ft | 161 kts | 16° |
| 2026-04-25 19:31 | 16.01074 | -22.92788 | 2496 ft | 146 kts | 16° |
| 2026-04-25 19:31 | 16.02037 | -22.92492 | 2279 ft | 143 kts | 15° |
| 2026-04-25 19:32 | 16.02975 | -22.92202 | 2082 ft | 139 kts | 15° |
| 2026-04-25 19:32 | 16.03895 | -22.91917 | 1892 ft | 137 kts | 17° |
| 2026-04-25 19:32 | 16.04806 | -22.91635 | 1702 ft | 136 kts | 18° |
| 2026-04-25 19:32 | 16.05409 | -22.91448 | 1591 ft | 137 kts | 18° |
| 2026-04-25 19:33 | 16.06614 | -22.91075 | 1336 ft | 136 kts | 16° |
| 2026-04-25 19:33 | 16.07523 | -22.90794 | 1173 ft | 137 kts | 18° |
| 2026-04-25 19:33 | 16.08437 | -22.90511 | 991 ft | 135 kts | 18° |
| 2026-04-25 19:33 | 16.09341 | -22.90228 | 803 ft | 135 kts | 17° |
| 2026-04-25 19:34 | 16.10243 | -22.89941 | 573 ft | 138 kts | 19° |
| 2026-04-25 19:34 | 16.11168 | -22.89653 | 386 ft | 139 kts | 18° |
| 2026-04-25 19:34 | 16.12081 | -22.89370 | 220 ft | 135 kts | 17° |
| 2026-04-25 19:34 | 16.12976 | -22.89096 | 67 ft | 133 kts | 17° |
| 2026-04-25 19:35 | 16.13775 | -22.88847 | 61 ft | 95 kts | 16° |
| 2026-04-25 19:35 | 16.14209 | -22.88713 | 65 ft | 29 kts | 17° |
| 2026-04-25 19:35 | 16.14388 | -22.88656 | 59 ft | 27 kts | 17° |
| 2026-04-25 19:35 | 16.14540 | -22.88633 | 60 ft | 20 kts | 338° |
| 2026-04-25 19:36 | 16.14629 | -22.88596 | 63 ft | 10 kts | 99° |
| 2026-04-25 19:36 | 16.14588 | -22.88594 | 55 ft | 9 kts | 198° |
| 2026-04-25 19:36 | 16.14497 | -22.88624 | 61 ft | 18 kts | 198° |
| 2026-04-25 19:36 | 16.14351 | -22.88667 | 57 ft | 25 kts | 196° |
| 2026-04-25 19:37 | 16.14186 | -22.88719 | 60 ft | 24 kts | 196° |
| 2026-04-25 19:37 | 16.14037 | -22.88765 | 55 ft | 23 kts | 197° |
| 2026-04-25 19:37 | 16.13886 | -22.88813 | 62 ft | 22 kts | 197° |
| 2026-04-25 19:37 | 16.13749 | -22.88855 | 62 ft | 20 kts | 197° |
| 2026-04-25 19:38 | 16.13628 | -22.88893 | 60 ft | 15 kts | 201° |
| 2026-04-25 19:38 | 16.13608 | -22.88964 | 58 ft | 10 kts | 285° |
| 2026-04-25 19:38 | 16.13592 | -22.89004 | 52 ft | 6 kts | 214° |
| 2026-04-25 19:38 | 16.13561 | -22.89016 | 55 ft | 3 kts | 199° |
| 2026-04-25 19:39 | 16.13543 | -22.89022 | 59 ft | 3 kts | 198° |
| 2026-04-25 19:39 | 16.13523 | -22.89029 | 59 ft | 3 kts | 196° |
| 2026-04-25 19:39 | 16.13520 | -22.89029 | 59 ft | 0 kts | 195° |
| 2026-04-25 19:40 | 16.13517 | -22.89030 | 57 ft | 2 kts | 195° |
| 2026-04-25 19:40 | 16.13504 | -22.89040 | 53 ft | 3 kts | 232° |
| 2026-04-25 19:41 | 16.13506 | -22.89070 | 54 ft | 5 kts | 282° |
| 2026-04-25 19:41 | 16.13517 | -22.89110 | 57 ft | 6 kts | 288° |
| 2026-04-25 19:41 | 16.13518 | -22.89115 | 54 ft | 0 kts | 288° |